Time;durP1;ratioP1;P1;durP2;ratioP2;P2;SDS_P1;SDS_P2;PMS_P1;PMS_P2;Temp;Humidity;BMP_temperature;BMP_pressure;BME280_temperature;BME280_humidity;BME280_pressure;Samples;Min_cycle;Max_cycle;Signal;HPM_P1;HPM_P2
2022/01/08 00:00:00;;;;;;;;;;;;;;;-1.17;100.00;95535.19;1022485;28;19914;-74
2022/01/08 00:00:30;;;;;;;;;;;;;;;-1.20;100.00;95534.63;1019816;28;19919;-74
2022/01/08 00:01:01;;;;;;;;;;;;;;;-1.20;100.00;95541.53;1023069;29;19914;-74
2022/01/08 00:01:31;;;;;;;;;;;;;;;-1.22;100.00;95540.94;1019212;29;19926;-74
2022/01/08 00:02:03;;;;;;;;;;;;;;;-1.26;100.00;95537.16;1014886;29;19950;-74
2022/01/08 00:02:33;;;;;;;;;;;;;;;-1.28;100.00;95533.97;1019052;29;19922;-74
2022/01/08 00:03:03;;;;;;;;;;;;;;;-1.30;100.00;95541.91;1023334;28;19918;-74
2022/01/08 00:03:34;;;;;;;;;;;;;;;-1.31;100.00;95532.63;1027116;28;19922;-74
2022/01/08 00:04:04;;;;;;;;;;;;;;;-1.29;100.00;95534.97;1026906;28;20350;-74
2022/01/08 00:04:34;;;;;;;;;;;;;;;-1.30;100.00;95534.19;1026958;28;20048;-74
2022/01/08 00:05:05;;;;;;;;;;;;;;;-1.32;100.00;95536.16;1026966;28;20357;-73
2022/01/08 00:05:35;;;;;;;;;;;;;;;-1.32;100.00;95530.22;1027209;28;19918;-73
2022/01/08 00:06:05;;;;;;;;;;;;;;;-1.34;100.00;95533.00;1030772;28;19972;-74
2022/01/08 00:06:36;;;;;;;;;;;;;;;-1.36;100.00;95529.81;1026980;28;19936;-73
2022/01/08 00:07:06;;;;;;;;;;;;;;;-1.33;100.00;95529.44;1027240;28;20355;-74
2022/01/08 00:07:36;;;;;;;;;;;;;;;-1.28;100.00;95531.41;1022960;29;19994;-74
2022/01/08 00:08:07;;;;;;;;;;;;;;;-1.27;100.00;95533.00;1018752;29;19919;-74
2022/01/08 00:08:37;;;;;;;;;;;;;;;-1.30;100.00;95531.63;1026350;28;19914;-73
2022/01/08 00:09:07;;;;;;;;;;;;;;;-1.33;100.00;95526.84;1026586;28;19918;-74
2022/01/08 00:09:37;;;;;;;;;;;;;;;-1.34;100.00;95527.84;1031101;28;20212;-74
2022/01/08 00:10:08;;;;;;;;;;;;;;;-1.36;100.00;95529.81;1025964;28;20390;-72
2022/01/08 00:10:39;;;;;;;;;;;;;;;-1.36;100.00;95527.22;1026835;28;19914;-74
2022/01/08 00:11:13;;;;;;;;;;;;;;;-1.36;100.00;95524.66;1026870;28;19969;-74
2022/01/08 00:11:43;;;;;;;;;;;;;;;-1.32;100.00;95528.44;1029394;28;19943;-74
2022/01/08 00:12:14;;;;;;;;;;;;;;;-1.34;100.00;95519.31;1030409;28;19914;-73
2022/01/08 00:12:45;;;;;;;;;;;;;;;-1.34;100.00;95517.56;1030580;28;19988;-74
2022/01/08 00:13:15;;;;;;;;;;;;;;;-1.35;100.00;95513.38;1030814;28;19917;-73
2022/01/08 00:13:46;;;;;;;;;;;;;;;-1.35;100.00;95522.88;1027251;28;19918;-74
2022/01/08 00:14:18;;;;;;;;;;;;;;;-1.37;100.00;95517.16;1030674;28;20268;-74
2022/01/08 00:14:49;;;;;;;;;;;;;;;-1.39;100.00;95514.75;1026853;28;19918;-74
2022/01/08 00:15:21;;;;;;;;;;;;;;;-1.41;100.00;95516.72;1018931;29;19914;-74
2022/01/08 00:15:51;;;;;;;;;;;;;;;-1.40;100.00;95512.38;1018269;29;19965;-74
2022/01/08 00:16:21;;;;;;;;;;;;;;;-1.37;100.00;95512.78;1015379;29;19927;-75
2022/01/08 00:16:52;;;;;;;;;;;;;;;-1.37;100.00;95510.22;1023352;28;19946;-74
2022/01/08 00:17:23;;;;;;;;;;;;;;;-1.38;100.00;95512.97;1030174;28;19918;-74
2022/01/08 00:17:53;;;;;;;;;;;;;;;-1.38;100.00;95511.19;1028668;28;19918;-74
2022/01/08 00:18:24;;;;;;;;;;;;;;;-1.36;100.00;95508.44;1026963;28;19921;-74
2022/01/08 00:18:54;;;;;;;;;;;;;;;-1.37;100.00;95504.28;1022826;29;20412;-74
2022/01/08 00:19:24;;;;;;;;;;;;;;;-1.36;100.00;95509.22;1023290;29;20374;-73
2022/01/08 00:19:55;;;;;;;;;;;;;;;-1.38;100.00;95508.59;1022965;28;19926;-73
2022/01/08 00:20:26;;;;;;;;;;;;;;;-1.39;100.00;95509.59;1023941;28;20009;-74
2022/01/08 00:20:57;;;;;;;;;;;;;;;-1.42;100.00;95507.41;1022870;28;19961;-74
2022/01/08 00:21:27;;;;;;;;;;;;;;;-1.42;100.00;95505.63;1026780;28;20103;-74
2022/01/08 00:21:57;;;;;;;;;;;;;;;-1.46;100.00;95507.00;1027358;28;20402;-74
2022/01/08 00:22:28;;;;;;;;;;;;;;;-1.49;100.00;95498.88;1031290;28;19928;-74
2022/01/08 00:22:58;;;;;;;;;;;;;;;-1.48;100.00;95503.03;1026889;28;19914;-74
2022/01/08 00:23:29;;;;;;;;;;;;;;;-1.54;100.00;95504.63;1023289;29;19919;-74
2022/01/08 00:24:00;;;;;;;;;;;;;;;-1.58;100.00;95511.13;1022908;28;19964;-74
2022/01/08 00:24:30;;;;;;;;;;;;;;;-1.61;100.00;95506.38;1023058;28;20390;-74
2022/01/08 00:25:00;;;;;;;;;;;;;;;-1.61;100.00;95505.56;1027047;28;19929;-74
2022/01/08 00:25:31;;;;;;;;;;;;;;;-1.63;100.00;95499.84;1031038;28;19967;-74
2022/01/08 00:26:03;;;;;;;;;;;;;;;-1.67;100.00;95502.78;1022965;28;19961;-74
2022/01/08 00:26:33;;;;;;;;;;;;;;;-1.64;100.00;95508.50;1023047;29;19914;-74
2022/01/08 00:27:04;;;;;;;;;;;;;;;-1.69;100.00;95509.09;1022782;28;20751;-74
2022/01/08 00:27:34;;;;;;;;;;;;;;;-1.76;100.00;95508.28;1019973;28;19926;-75
2022/01/08 00:28:05;;;;;;;;;;;;;;;-1.78;100.00;95505.88;1023120;28;20372;-74
2022/01/08 00:28:35;;;;;;;;;;;;;;;-1.77;100.00;95504.91;1023252;29;19991;-74
2022/01/08 00:29:05;;;;;;;;;;;;;;;-1.81;100.00;95511.44;1026862;28;19918;-74
2022/01/08 00:29:35;;;;;;;;;;;;;;;-1.84;100.00;95511.81;1026972;28;19916;-74
2022/01/08 00:30:06;;;;;;;;;;;;;;;-1.86;100.00;95503.47;1026676;28;19918;-74
2022/01/08 00:30:36;;;;;;;;;;;;;;;-1.90;100.00;95510.00;1026708;28;20312;-74
2022/01/08 00:31:10;;;;;;;;;;;;;;;-1.88;100.00;95505.44;1022833;28;19949;-74
2022/01/08 00:31:41;;;;;;;;;;;;;;;-1.86;100.00;95508.63;1028563;28;19948;-74
2022/01/08 00:32:13;;;;;;;;;;;;;;;-1.92;100.00;95509.38;1026810;28;19922;-74
2022/01/08 00:32:43;;;;;;;;;;;;;;;-1.96;100.00;95503.03;1023007;28;19973;-74
2022/01/08 00:33:14;;;;;;;;;;;;;;;-1.97;100.00;95511.75;1025178;28;19910;-73
2022/01/08 00:33:44;;;;;;;;;;;;;;;-2.03;100.00;95502.22;1020963;29;20008;-74
2022/01/08 00:34:14;;;;;;;;;;;;;;;-2.08;100.00;95504.53;1024701;28;19988;-74
2022/01/08 00:34:44;;;;;;;;;;;;;;;-2.11;100.00;95504.91;1028880;28;19914;-74
2022/01/08 00:35:16;;;;;;;;;;;;;;;-2.10;100.00;95503.97;1028193;28;19910;-74
2022/01/08 00:35:47;;;;;;;;;;;;;;;-2.14;100.00;95506.91;1020497;29;19907;-74
2022/01/08 00:36:17;;;;;;;;;;;;;;;-2.18;100.00;95504.88;1019215;29;19954;-74
2022/01/08 00:36:47;;;;;;;;;;;;;;;-2.20;100.00;95501.72;1022800;29;19911;-74
2022/01/08 00:37:18;;;;;;;;;;;;;;;-2.24;100.00;95509.00;1023195;28;19914;-74
2022/01/08 00:37:48;;;;;;;;;;;;;;;-2.26;100.00;95503.25;1031054;28;19929;-74
2022/01/08 00:38:18;;;;;;;;;;;;;;;-2.27;100.00;95506.81;1031290;28;20284;-74
2022/01/08 00:38:48;;;;;;;;;;;;;;;-2.26;100.00;95492.97;1026179;28;19914;-74
2022/01/08 00:39:19;;;;;;;;;;;;;;;-2.22;100.00;95493.41;1026934;28;19914;-74
2022/01/08 00:39:49;;;;;;;;;;;;;;;-2.21;100.00;95490.66;1026714;28;19917;-74
2022/01/08 00:40:19;;;;;;;;;;;;;;;-2.25;100.00;95494.56;1026331;28;19918;-74
2022/01/08 00:40:50;;;;;;;;;;;;;;;-2.30;100.00;95490.97;1027038;28;19906;-73
2022/01/08 00:41:20;;;;;;;;;;;;;;;-2.35;100.00;95491.53;1023126;28;19910;-74
2022/01/08 00:41:50;;;;;;;;;;;;;;;-2.38;100.00;95487.59;1030886;28;19933;-77
2022/01/08 00:42:21;;;;;;;;;;;;;;;-2.40;100.00;95492.09;1031280;28;19914;-74
2022/01/08 00:42:51;;;;;;;;;;;;;;;-2.31;100.00;95490.19;1030968;28;19960;-74
2022/01/08 00:43:21;;;;;;;;;;;;;;;-2.32;100.00;95493.72;1019301;29;19957;-74
2022/01/08 00:43:52;;;;;;;;;;;;;;;-2.34;100.00;95490.56;1018551;29;20539;-74
2022/01/08 00:44:22;;;;;;;;;;;;;;;-2.38;100.00;95485.00;1019176;29;19914;-74
2022/01/08 00:44:52;;;;;;;;;;;;;;;-2.40;100.00;95491.31;1019206;29;19945;-73
2022/01/08 00:45:23;;;;;;;;;;;;;;;-2.44;100.00;95484.97;1026961;28;19969;-74
2022/01/08 00:45:53;;;;;;;;;;;;;;;-2.49;100.00;95487.28;1022918;29;19914;-75
2022/01/08 00:46:23;;;;;;;;;;;;;;;-2.48;100.00;95486.31;1023253;29;19966;-73
2022/01/08 00:46:54;;;;;;;;;;;;;;;-2.49;100.00;95482.16;1018641;29;19942;-75
2022/01/08 00:47:24;;;;;;;;;;;;;;;-2.43;100.00;95483.97;1021380;29;19921;-74
2022/01/08 00:47:54;;;;;;;;;;;;;;;-2.45;100.00;95476.47;1026650;28;19906;-74
2022/01/08 00:48:25;;;;;;;;;;;;;;;-2.45;100.00;95486.75;1026978;28;19910;-74
2022/01/08 00:48:55;;;;;;;;;;;;;;;-2.45;100.00;95478.22;1022695;28;19938;-73
2022/01/08 00:49:25;;;;;;;;;;;;;;;-2.48;100.00;95479.41;1022890;29;19921;-75
2022/01/08 00:49:56;;;;;;;;;;;;;;;-2.46;100.00;95477.44;1018797;29;20332;-73
2022/01/08 00:50:26;;;;;;;;;;;;;;;-2.41;100.00;95479.47;1014354;29;20562;-75
2022/01/08 00:50:56;;;;;;;;;;;;;;;-2.41;100.00;95476.88;1022900;29;19929;-74
2022/01/08 00:51:26;;;;;;;;;;;;;;;-2.42;100.00;95472.72;1022979;29;19922;-74
2022/01/08 00:51:57;;;;;;;;;;;;;;;-2.39;100.00;95469.78;1026615;28;19918;-74
2022/01/08 00:52:27;;;;;;;;;;;;;;;-2.38;100.00;95472.16;1030833;28;20381;-73
2022/01/08 00:52:58;;;;;;;;;;;;;;;-2.35;100.00;95465.84;1030918;28;19961;-73
2022/01/08 00:53:28;;;;;;;;;;;;;;;-2.30;100.00;95470.44;1030840;28;20009;-74
2022/01/08 00:53:59;;;;;;;;;;;;;;;-2.29;100.00;95465.09;1030038;28;19914;-74
2022/01/08 00:54:29;;;;;;;;;;;;;;;-2.26;100.00;95469.84;1030960;28;20064;-74
2022/01/08 00:54:59;;;;;;;;;;;;;;;-2.23;100.00;95468.69;1028012;28;19921;-74
2022/01/08 00:55:29;;;;;;;;;;;;;;;-2.18;100.00;95464.56;1022756;29;19986;-74
2022/01/08 00:56:00;;;;;;;;;;;;;;;-2.11;100.00;95463.78;1018353;29;19919;-73
2022/01/08 00:56:30;;;;;;;;;;;;;;;-2.10;100.00;95465.41;1018902;29;20181;-74
2022/01/08 00:57:00;;;;;;;;;;;;;;;-2.05;100.00;95468.19;1014980;29;19923;-74
2022/01/08 00:57:31;;;;;;;;;;;;;;;-2.04;100.00;95464.66;1020862;29;20458;-74
2022/01/08 00:58:01;;;;;;;;;;;;;;;-2.02;100.00;95465.22;1022602;29;19925;-74
2022/01/08 00:58:32;;;;;;;;;;;;;;;-2.01;100.00;95464.25;1026743;28;19956;-74
2022/01/08 00:59:03;;;;;;;;;;;;;;;-1.99;100.00;95462.28;1026445;28;19914;-74
2022/01/08 00:59:34;;;;;;;;;;;;;;;-2.01;100.00;95461.66;1026781;28;19965;-75
2022/01/08 01:00:05;;;;;;;;;;;;;;;-2.03;100.00;95466.22;1018194;29;19915;-73
2022/01/08 01:00:35;;;;;;;;;;;;;;;-2.05;100.00;95460.47;1018413;29;19918;-74
2022/01/08 01:01:05;;;;;;;;;;;;;;;-2.05;100.00;95460.47;1019045;29;19918;-75
2022/01/08 01:01:36;;;;;;;;;;;;;;;-2.07;100.00;95459.88;1015203;28;19919;-74
2022/01/08 01:02:06;;;;;;;;;;;;;;;-2.09;100.00;95456.69;1022846;29;19961;-73
2022/01/08 01:02:36;;;;;;;;;;;;;;;-2.09;100.00;95461.84;1022257;28;19922;-73
2022/01/08 01:03:07;;;;;;;;;;;;;;;-2.10;100.00;95460.25;1022886;29;19978;-74
2022/01/08 01:03:37;;;;;;;;;;;;;;;-2.12;100.00;95460.44;1026718;28;20278;-74
2022/01/08 01:04:08;;;;;;;;;;;;;;;-2.15;100.00;95459.06;1026578;28;19918;-74
2022/01/08 01:04:38;;;;;;;;;;;;;;;-2.13;100.00;95456.28;1022482;29;19919;-75
2022/01/08 01:05:09;;;;;;;;;;;;;;;-2.14;100.00;95452.13;1025139;28;19918;-74
2022/01/08 01:05:39;;;;;;;;;;;;;;;-2.18;100.00;95454.28;1030771;28;19917;-74
2022/01/08 01:06:09;;;;;;;;;;;;;;;-2.20;100.00;95456.25;1030671;28;20418;-74
2022/01/08 01:06:40;;;;;;;;;;;;;;;-2.22;100.00;95458.22;1026527;28;19922;-73
2022/01/08 01:07:10;;;;;;;;;;;;;;;-2.21;100.00;95459.81;1023036;29;19914;-74
2022/01/08 01:07:40;;;;;;;;;;;;;;;-2.24;100.00;95449.91;1014670;29;19922;-74
2022/01/08 01:08:11;;;;;;;;;;;;;;;-2.18;100.00;95454.28;1015107;29;19958;-74
2022/01/08 01:08:41;;;;;;;;;;;;;;;-2.22;100.00;95455.63;1014905;29;19915;-74
2022/01/08 01:09:11;;;;;;;;;;;;;;;-2.25;100.00;95456.00;1022638;28;20407;-73
2022/01/08 01:09:41;;;;;;;;;;;;;;;-2.24;100.00;95452.47;1030870;28;19967;-74
2022/01/08 01:10:12;;;;;;;;;;;;;;;-2.23;100.00;95450.69;1030344;28;19936;-73
2022/01/08 01:10:42;;;;;;;;;;;;;;;-2.27;100.00;95450.28;1026368;28;19925;-74
2022/01/08 01:11:12;;;;;;;;;;;;;;;-2.30;100.00;95448.09;1026570;28;19910;-74
2022/01/08 01:11:43;;;;;;;;;;;;;;;-2.31;100.00;95443.94;1026616;28;19906;-74
2022/01/08 01:12:13;;;;;;;;;;;;;;;-2.32;100.00;95450.03;1027028;28;19975;-74
2022/01/08 01:12:43;;;;;;;;;;;;;;;-2.34;100.00;95446.88;1030101;28;19909;-73
2022/01/08 01:13:14;;;;;;;;;;;;;;;-2.32;100.00;95447.47;1026885;28;20044;-73
2022/01/08 01:13:44;;;;;;;;;;;;;;;-2.26;100.00;95448.50;1022997;29;19985;-73
2022/01/08 01:14:14;;;;;;;;;;;;;;;-2.26;100.00;95445.94;1026706;28;19917;-73
2022/01/08 01:14:44;;;;;;;;;;;;;;;-2.27;100.00;95447.72;1022722;28;19906;-73
2022/01/08 01:15:15;;;;;;;;;;;;;;;-2.29;100.00;95438.59;1026895;28;19902;-73
2022/01/08 01:15:45;;;;;;;;;;;;;;;-2.34;100.00;95439.19;1026808;28;19906;-74
2022/01/08 01:16:16;;;;;;;;;;;;;;;-2.36;100.00;95438.56;1022645;28;19946;-73
2022/01/08 01:16:46;;;;;;;;;;;;;;;-2.37;100.00;95444.69;1026703;28;20355;-74
2022/01/08 01:17:16;;;;;;;;;;;;;;;-2.37;100.00;95437.00;1026315;28;19910;-73
2022/01/08 01:17:47;;;;;;;;;;;;;;;-2.37;100.00;95442.13;1020649;28;19994;-74
2022/01/08 01:18:17;;;;;;;;;;;;;;;-2.38;100.00;95437.97;1022461;29;19955;-74
2022/01/08 01:18:47;;;;;;;;;;;;;;;-2.37;100.00;95435.22;1022726;29;19950;-74
2022/01/08 01:19:18;;;;;;;;;;;;;;;-2.36;100.00;95436.00;1026745;28;20319;-74
2022/01/08 01:19:49;;;;;;;;;;;;;;;-2.39;100.00;95436.38;1030429;28;20383;-73
2022/01/08 01:20:21;;;;;;;;;;;;;;;-2.40;100.00;95434.78;1026145;28;19914;-73
2022/01/08 01:20:51;;;;;;;;;;;;;;;-2.43;100.00;95435.97;1025433;28;19906;-74
2022/01/08 01:21:21;;;;;;;;;;;;;;;-2.43;100.00;95433.41;1014850;29;19911;-74
2022/01/08 01:21:54;;;;;;;;;;;;;;;-2.42;100.00;95429.84;1018574;29;19950;-74
2022/01/08 01:22:29;;;;;;;;;;;;;;;-2.43;100.00;95432.59;1023264;28;19933;-73
2022/01/08 01:23:07;;;;;;;;;;;;;;;-2.45;100.00;95432.81;1025058;28;19917;-74
2022/01/08 01:23:41;;;;;;;;;;;;;;;-2.44;100.00;95428.47;1024506;28;19916;-74
2022/01/08 01:24:17;;;;;;;;;;;;;;;-2.47;100.00;95418.56;1025435;28;20047;-74
2022/01/08 01:24:49;;;;;;;;;;;;;;;-2.47;100.00;95428.84;1031052;28;20753;-74
2022/01/08 01:25:26;;;;;;;;;;;;;;;-2.48;100.00;95424.66;1030354;28;19996;-74
2022/01/08 01:26:00;;;;;;;;;;;;;;;-2.48;100.00;95416.94;1030872;28;20004;-74
2022/01/08 01:26:31;;;;;;;;;;;;;;;-2.48;100.00;95424.66;1025042;28;20083;-75
2022/01/08 01:28:00;;;;;;;;;;;;;;;-2.51;100.00;95427.63;1026723;28;19910;-74
2022/01/08 01:29:24;;;;;;;;;;;;;;;-2.46;100.00;95422.69;1027041;28;19906;-73
2022/01/08 01:30:54;;;;;;;;;;;;;;;-2.47;100.00;95421.91;1026303;28;20326;-73
2022/01/08 01:46:59;;;;;;;;;;;;;;;-2.52;100.00;95387.50;1030810;28;20564;-74
2022/01/08 01:47:16;;;;;;;;;;;;;;;-2.56;100.00;95383.72;1033914;28;20016;-73
2022/01/08 01:47:46;;;;;;;;;;;;;;;-2.60;100.00;95388.44;1030845;28;20004;-74
2022/01/08 01:48:16;;;;;;;;;;;;;;;-2.52;100.00;95382.34;1026604;28;19964;-73
2022/01/08 01:48:47;;;;;;;;;;;;;;;-2.50;100.00;95383.75;1021946;28;19917;-74
2022/01/08 01:49:17;;;;;;;;;;;;;;;-2.50;100.00;95382.97;1022788;29;20201;-73
2022/01/08 01:49:47;;;;;;;;;;;;;;;-2.50;100.00;95382.97;1022657;29;19911;-73
2022/01/08 01:50:18;;;;;;;;;;;;;;;-2.54;100.00;95384.34;1025922;28;19918;-73
2022/01/08 01:50:48;;;;;;;;;;;;;;;-2.54;100.00;95386.91;1026687;28;19914;-73
2022/01/08 01:51:19;;;;;;;;;;;;;;;-2.52;100.00;95384.94;1022738;28;19926;-74
2022/01/08 01:51:49;;;;;;;;;;;;;;;-2.54;100.00;95380.00;1020603;29;19911;-74
2022/01/08 01:52:20;;;;;;;;;;;;;;;-2.58;100.00;95380.53;1014834;29;19915;-72
2022/01/08 01:52:50;;;;;;;;;;;;;;;-2.64;100.00;95382.91;1011242;29;19919;-74
2022/01/08 01:53:20;;;;;;;;;;;;;;;-2.67;100.00;95378.13;1019136;29;19919;-73
2022/01/08 01:53:50;;;;;;;;;;;;;;;-2.70;100.00;95377.72;1030254;28;19972;-74
2022/01/08 01:54:21;;;;;;;;;;;;;;;-2.74;100.00;95377.31;1031519;28;20633;-74
2022/01/08 01:54:52;;;;;;;;;;;;;;;-2.74;100.00;95372.19;1030726;28;19918;-73
2022/01/08 01:55:22;;;;;;;;;;;;;;;-2.74;100.00;95373.94;1029171;28;19941;-72
2022/01/08 01:55:52;;;;;;;;;;;;;;;-2.76;100.00;95369.00;1031589;28;19910;-73
2022/01/08 01:56:23;;;;;;;;;;;;;;;-2.77;100.00;95367.41;1027282;28;19918;-73
2022/01/08 01:56:53;;;;;;;;;;;;;;;-2.82;100.00;95369.75;1027024;28;19949;-73
2022/01/08 01:57:24;;;;;;;;;;;;;;;-2.81;100.00;95365.41;1023303;29;19953;-73
2022/01/08 01:57:54;;;;;;;;;;;;;;;-2.78;100.00;95368.41;1023424;28;20450;-75
2022/01/08 01:58:24;;;;;;;;;;;;;;;-2.76;100.00;95363.84;1023529;29;20296;-73
2022/01/08 01:58:55;;;;;;;;;;;;;;;-2.73;100.00;95366.03;1023193;28;19926;-73
2022/01/08 01:59:25;;;;;;;;;;;;;;;-2.77;100.00;95357.16;1023585;28;20568;-74
2022/01/08 01:59:56;;;;;;;;;;;;;;;-2.79;100.00;95359.09;1019456;29;19918;-73
2022/01/08 02:00:27;;;;;;;;;;;;;;;-3.02;100.00;95325.19;1019136;29;19915;-74
2022/01/08 02:00:57;;;;;;;;;;;;;;;-2.80;100.00;95359.28;1023572;28;19946;-73
2022/01/08 02:01:27;;;;;;;;;;;;;;;-2.83;100.00;95355.31;1027713;28;19952;-74
2022/01/08 02:01:58;;;;;;;;;;;;;;;-2.85;100.00;95360.66;1027979;28;20367;-72
2022/01/08 02:02:28;;;;;;;;;;;;;;;-3.02;100.00;95327.75;1024419;29;20654;-73
2022/01/08 02:02:59;;;;;;;;;;;;;;;-2.83;100.00;95357.88;1028065;28;19980;-73
2022/01/08 02:03:29;;;;;;;;;;;;;;;-2.83;100.00;95360.47;1028069;28;19913;-73
2022/01/08 02:03:59;;;;;;;;;;;;;;;-2.87;100.00;95356.69;1027275;28;19917;-73
2022/01/08 02:04:30;;;;;;;;;;;;;;;-2.91;100.00;95355.47;1031969;28;19913;-73
2022/01/08 02:05:00;;;;;;;;;;;;;;;-2.93;100.00;95354.88;1027384;28;19917;-73
2022/01/08 02:05:30;;;;;;;;;;;;;;;-2.96;100.00;95355.25;1027343;28;19916;-73
2022/01/08 02:06:01;;;;;;;;;;;;;;;-2.98;100.00;95354.66;1027615;28;19914;-73
2022/01/08 02:06:31;;;;;;;;;;;;;;;-3.03;100.00;95357.75;1027628;28;19910;-73
2022/01/08 02:07:01;;;;;;;;;;;;;;;-3.05;100.00;95361.50;1027234;28;19945;-73
2022/01/08 02:07:32;;;;;;;;;;;;;;;-3.06;100.00;95352.22;1023655;29;20020;-74
2022/01/08 02:08:02;;;;;;;;;;;;;;;-3.08;100.00;95350.63;1027417;28;19910;-73
2022/01/08 02:08:33;;;;;;;;;;;;;;;-3.10;100.00;95355.16;1027387;28;19918;-73
2022/01/08 02:09:03;;;;;;;;;;;;;;;-3.10;100.00;95342.31;1026850;28;19921;-72
2022/01/08 02:09:37;;;;;;;;;;;;;;;-3.11;100.00;95348.44;1031585;28;19918;-73
2022/01/08 02:10:07;;;;;;;;;;;;;;;-3.12;100.00;95341.72;1026873;28;19918;-73
2022/01/08 02:10:38;;;;;;;;;;;;;;;-3.12;100.00;95344.28;1027201;28;19914;-70
2022/01/08 02:11:08;;;;;;;;;;;;;;;-3.13;100.00;95345.25;1027410;28;20613;-73
2022/01/08 02:11:57;;;;;;;;;;;;;;;-3.11;100.00;95351.00;1031735;28;19940;-73
2022/01/08 02:12:30;;;;;;;;;;;;;;;-3.11;100.00;95350.22;1030616;28;19913;-72
2022/01/08 02:13:00;;;;;;;;;;;;;;;-3.14;100.00;95341.13;1031461;28;20041;-73
2022/01/08 02:13:32;;;;;;;;;;;;;;;-3.13;100.00;95341.91;1028822;28;19949;-73
2022/01/08 02:14:05;;;;;;;;;;;;;;;-3.13;100.00;95339.34;1027219;28;20689;-72
2022/01/08 02:14:36;;;;;;;;;;;;;;;-3.14;100.00;95346.25;1027476;28;19918;-72
2022/01/08 02:15:06;;;;;;;;;;;;;;;-3.16;100.00;95337.94;1027447;28;19914;-74
2022/01/08 02:15:37;;;;;;;;;;;;;;;-3.18;100.00;95339.13;1031133;28;19921;-72
2022/01/08 02:16:16;;;;;;;;;;;;;;;-3.22;100.00;95341.25;1031613;28;19913;-73
2022/01/08 02:16:46;;;;;;;;;;;;;;;-3.25;100.00;95343.38;1031651;28;19968;-73
2022/01/08 02:17:16;;;;;;;;;;;;;;;-3.28;100.00;95339.44;1028436;28;19969;-72
2022/01/08 02:17:47;;;;;;;;;;;;;;;-3.26;100.00;95336.66;1031428;28;19916;-72
2022/01/08 02:18:18;;;;;;;;;;;;;;;-3.27;100.00;95333.31;1031630;28;19924;-72
2022/01/08 02:18:50;;;;;;;;;;;;;;;-3.27;100.00;95329.97;1027645;28;20359;-73
2022/01/08 02:19:20;;;;;;;;;;;;;;;-3.27;100.00;95325.63;1022472;28;19914;-72
2022/01/08 02:19:51;;;;;;;;;;;;;;;-3.29;100.00;95322.44;1019403;29;20013;-73
2022/01/08 02:20:22;;;;;;;;;;;;;;;-3.27;100.00;95322.28;1019392;29;19950;-73
2022/01/08 02:20:52;;;;;;;;;;;;;;;-3.26;100.00;95319.50;1027399;28;19913;-73
2022/01/08 02:21:24;;;;;;;;;;;;;;;-3.25;100.00;95320.28;1031179;28;20008;-73
2022/01/08 02:21:55;;;;;;;;;;;;;;;-3.26;100.00;95323.84;1027463;28;20348;-73
2022/01/08 02:22:25;;;;;;;;;;;;;;;-3.28;100.00;95324.03;1031180;28;19917;-73
2022/01/08 02:22:56;;;;;;;;;;;;;;;-3.29;100.00;95322.44;1027676;28;19914;-73
2022/01/08 02:23:26;;;;;;;;;;;;;;;-3.29;100.00;95327.56;1031585;28;19920;-72
2022/01/08 02:23:57;;;;;;;;;;;;;;;-3.30;100.00;95325.22;1028135;28;19951;-73
2022/01/08 02:24:27;;;;;;;;;;;;;;;-3.33;100.00;95322.03;1025327;28;19921;-73
2022/01/08 02:24:57;;;;;;;;;;;;;;;-3.33;100.00;95316.09;1027219;28;19910;-73
2022/01/08 02:25:28;;;;;;;;;;;;;;;-3.34;100.00;95319.66;1023529;29;19914;-73
2022/01/08 02:26:01;;;;;;;;;;;;;;;-3.35;100.00;95311.16;1019165;29;19922;-73
2022/01/08 02:26:31;;;;;;;;;;;;;;;-3.38;100.00;95315.88;1023705;29;19974;-73
2022/01/08 02:27:02;;;;;;;;;;;;;;;-3.38;100.00;95315.88;1027336;28;20331;-73
2022/01/08 02:27:32;;;;;;;;;;;;;;;-3.34;100.00;95309.41;1027659;28;19916;-73
2022/01/08 02:28:05;;;;;;;;;;;;;;;-3.29;100.00;95316.53;1031373;28;19920;-72
2022/01/08 02:28:36;;;;;;;;;;;;;;;-3.26;100.00;95311.81;1027135;28;19910;-72
2022/01/08 02:29:09;;;;;;;;;;;;;;;-3.24;100.00;95315.00;1027808;28;20499;-73
2022/01/08 02:29:39;;;;;;;;;;;;;;;-3.24;100.00;95314.19;1026947;28;19918;-73
2022/01/08 02:30:09;;;;;;;;;;;;;;;-3.26;100.00;95309.25;1027261;28;20366;-73
2022/01/08 02:30:40;;;;;;;;;;;;;;;-3.22;100.00;95313.03;1026993;28;19913;-73
2022/01/08 02:31:20;;;;;;;;;;;;;;;-3.24;100.00;95315.00;1023286;29;20446;-73
2022/01/08 02:31:53;;;;;;;;;;;;;;;-3.26;100.00;95311.81;1027634;28;19965;-73
2022/01/08 02:32:27;;;;;;;;;;;;;;;-3.27;100.00;95315.38;1031824;28;19942;-73
2022/01/08 02:32:57;;;;;;;;;;;;;;;-3.24;100.00;95309.06;1034463;28;19921;-72
2022/01/08 02:33:28;;;;;;;;;;;;;;;-3.24;100.00;95306.50;1029627;28;19922;-72
2022/01/08 02:33:59;;;;;;;;;;;;;;;-3.23;100.00;95310.66;1030707;28;19914;-73
2022/01/08 02:34:30;;;;;;;;;;;;;;;-3.23;100.00;95306.31;1025918;28;19921;-73
2022/01/08 02:35:00;;;;;;;;;;;;;;;-3.20;100.00;95308.50;1026994;28;20012;-73
2022/01/08 02:35:30;;;;;;;;;;;;;;;-3.19;100.00;95306.72;1028512;28;20360;-72
2022/01/08 02:36:04;;;;;;;;;;;;;;;-3.17;100.00;95308.13;1023564;29;20301;-72
2022/01/08 02:36:34;;;;;;;;;;;;;;;-3.21;100.00;95301.78;1027757;28;19921;-72
2022/01/08 02:37:05;;;;;;;;;;;;;;;-3.18;100.00;95305.75;1023624;28;19914;-72
2022/01/08 02:37:35;;;;;;;;;;;;;;;-3.17;100.00;95300.44;1019790;29;19965;-73
2022/01/08 02:38:05;;;;;;;;;;;;;;;-3.16;100.00;95302.00;1015583;29;20006;-73
2022/01/08 02:38:36;;;;;;;;;;;;;;;-3.19;100.00;95297.25;1015770;29;19919;-73
2022/01/08 02:39:06;;;;;;;;;;;;;;;-3.21;100.00;95294.09;1019673;29;19994;-73
2022/01/08 02:39:41;;;;;;;;;;;;;;;-3.23;100.00;95300.38;1023458;29;19953;-73
2022/01/08 02:40:12;;;;;;;;;;;;;;;-3.25;100.00;95292.88;1027702;28;19914;-72
2022/01/08 02:40:51;;;;;;;;;;;;;;;-3.26;100.00;95293.06;1030796;28;20732;-73
2022/01/08 02:41:22;;;;;;;;;;;;;;;-3.25;100.00;95295.47;1027643;28;19949;-72
2022/01/08 02:41:56;;;;;;;;;;;;;;;-3.27;100.00;95294.06;1031027;28;19971;-73
2022/01/08 02:42:36;;;;;;;;;;;;;;;-3.27;100.00;95294.84;1025695;28;19968;-73
2022/01/08 02:43:06;;;;;;;;;;;;;;;-3.27;100.00;95289.72;1023641;29;19922;-73
2022/01/08 02:43:43;;;;;;;;;;;;;;;-3.28;100.00;95290.69;1028911;28;20395;-73
2022/01/08 02:44:14;;;;;;;;;;;;;;;-3.32;100.00;95285.16;1031779;28;19924;-73
2022/01/08 02:44:44;;;;;;;;;;;;;;;-3.28;100.00;95290.69;1031561;28;20513;-73
2022/01/08 02:45:15;;;;;;;;;;;;;;;-3.25;100.00;95282.63;1029116;28;20368;-72
2022/01/08 02:45:45;;;;;;;;;;;;;;;-3.24;100.00;95289.34;1027509;28;19914;-73
2022/01/08 02:46:15;;;;;;;;;;;;;;;-3.26;100.00;95283.59;1027577;28;19941;-73
2022/01/08 02:46:45;;;;;;;;;;;;;;;-3.24;100.00;95284.22;1027461;28;20368;-73
2022/01/08 02:47:16;;;;;;;;;;;;;;;-3.26;100.00;95280.25;1019495;28;19915;-71
2022/01/08 02:47:49;;;;;;;;;;;;;;;-3.26;100.00;95287.94;1015738;29;19915;-73
2022/01/08 02:48:19;;;;;;;;;;;;;;;-3.26;100.00;95285.38;1016132;29;19915;-73
2022/01/08 02:48:52;;;;;;;;;;;;;;;-3.27;100.00;95276.88;1026060;28;19918;-73
2022/01/08 02:49:23;;;;;;;;;;;;;;;-3.28;100.00;95275.31;1023361;28;19950;-72
2022/01/08 02:49:54;;;;;;;;;;;;;;;-3.29;100.00;95276.28;1023290;29;19969;-73
2022/01/08 02:50:24;;;;;;;;;;;;;;;-3.32;100.00;95276.63;1022248;28;19925;-72
2022/01/08 02:50:54;;;;;;;;;;;;;;;-3.30;100.00;95272.13;1023860;28;19922;-72
2022/01/08 02:51:24;;;;;;;;;;;;;;;-3.32;100.00;95274.06;1031526;28;19910;-71
2022/01/08 02:51:55;;;;;;;;;;;;;;;-3.34;100.00;95266.59;1027027;28;19910;-72
2022/01/08 02:52:25;;;;;;;;;;;;;;;-3.33;100.00;95264.81;1027695;28;20406;-73
2022/01/08 02:52:55;;;;;;;;;;;;;;;-3.27;100.00;95274.31;1023429;28;19910;-72
2022/01/08 02:53:26;;;;;;;;;;;;;;;-3.29;100.00;95271.13;1027546;28;19910;-73
2022/01/08 02:53:56;;;;;;;;;;;;;;;-3.28;100.00;95266.81;1027138;28;19944;-73
2022/01/08 02:54:26;;;;;;;;;;;;;;;-3.27;100.00;95271.75;1027586;28;20008;-73
2022/01/08 02:54:57;;;;;;;;;;;;;;;-3.23;100.00;95270.38;1027666;28;19921;-73
2022/01/08 02:55:27;;;;;;;;;;;;;;;-3.22;100.00;95272.00;1023992;28;19917;-73
2022/01/08 02:55:57;;;;;;;;;;;;;;;-3.23;100.00;95270.38;1027634;28;19913;-73
2022/01/08 02:56:27;;;;;;;;;;;;;;;-3.20;100.00;95271.78;1027734;28;19949;-73